Terminal Aerodrome Forecast
Issued by NWS Twin Cities, MN

Home | Current Version | Previous Version | Graphics & Text | Print | Product List | Glossary On
Versions: 1 2 3 4 5 6 7 8 9 10 11 12 13 14 15 16 17 18
875
FTUS43 KMPX 231137
TAFEAU
TAF
KEAU 231137Z 2312/2412 32005KT P6SM BKN070
     FM231700 33009KT P6SM BKN050
     FM240200 01004KT P6SM SKC
     FM240800 04003KT 3SM BR SKC=

USA.gov is the U.S. government's official web portal to all federal, state and local government web resources and services.